If you wish to contribute or participate in the discussions about articles you are invited to join SKYbrary as a registered user

 Actions

Ain Arnat Airport

From SKYbrary Wiki

DAAS
Airport
ICAO: DAAS – IATA: QSF
Summary
Name Ain Arnat Airport
Region Africa
Territory Algeria DZ.gif
Location , Setif
Serving Setif
Elevation 1,024.128 m
3,360 ft
3,360 ft1,024.128 m
Type medium airport
Coordinates 36° 10' 41.16" N, 5° 19' 28.16" E
Runways
Designator Length Width Surface ROPS


METAR
Observation DAAS 242300Z 24002KT 9999 SCT026 SCT233 08/03 Q1024
Station Setif
Date/Time 24 March 2019 23:00:00
Wind direction 240°
Wind speed 02 kts
Lowest cloud amount scattered clouds
Temperature 8°C
Dew point 3°C
Humidity 70%
QNH 1024 hPa
Weather condition n/a